createdAt,value
2023-04-02T00:01:20.179Z,100724.00
2023-04-02T00:03:53.749Z,100729.00
2023-04-02T00:06:33.147Z,100733.00
2023-04-02T00:09:24.440Z,100738.00
2023-04-02T00:11:54.780Z,100740.00
2023-04-02T00:14:30.608Z,100742.00
2023-04-02T00:17:02.326Z,100738.00
2023-04-02T00:19:45.491Z,100745.00
2023-04-02T00:22:28.151Z,100750.00
2023-04-02T00:24:56.974Z,100741.00
2023-04-02T00:27:24.127Z,100753.00
2023-04-02T00:29:57.352Z,100751.00
2023-04-02T00:32:32.397Z,100751.00
2023-04-02T00:35:01.143Z,100758.00
2023-04-02T00:37:38.620Z,100763.00
2023-04-02T00:40:22.683Z,100766.00
2023-04-02T00:42:50.855Z,100780.00
2023-04-02T00:45:22.663Z,100776.00
2023-04-02T00:47:50.558Z,100778.00
2023-04-02T00:50:41.792Z,100780.00
2023-04-02T00:53:21.896Z,100785.00
2023-04-02T00:55:49.342Z,100776.00
2023-04-02T00:58:36.760Z,100793.00
2023-04-02T01:01:04.544Z,100793.00
2023-04-02T01:03:38.936Z,100789.00
2023-04-02T01:06:11.376Z,100783.00
2023-04-02T01:09:08.116Z,100794.00
2023-04-02T01:12:12.108Z,100809.00
2023-04-02T01:14:53.983Z,100793.00
2023-04-02T01:17:49.200Z,100810.00
2023-04-02T01:20:53.686Z,100817.00
2023-04-02T01:23:34.793Z,100823.00
2023-04-02T01:26:28.333Z,100829.00
2023-04-02T01:29:11.493Z,100835.00
2023-04-02T01:31:40.419Z,100843.00
2023-04-02T01:34:15.334Z,100827.00
2023-04-02T01:37:32.209Z,100845.00
2023-04-02T01:40:30.704Z,100856.00
2023-04-02T01:43:35.994Z,100844.00
2023-04-02T01:46:26.538Z,100858.00
2023-04-02T01:48:55.709Z,100853.00
2023-04-02T01:51:33.900Z,100869.00
2023-04-02T01:54:06.208Z,100871.00
2023-04-02T01:56:35.561Z,100870.00
2023-04-02T01:59:05.953Z,100871.00
2023-04-02T02:01:43.386Z,100881.00
2023-04-02T02:04:16.409Z,100894.00
2023-04-02T02:06:44.465Z,100895.00
2023-04-02T02:09:23.080Z,100901.00
2023-04-02T02:11:51.936Z,100915.00
2023-04-02T02:14:24.750Z,100921.00
2023-04-02T02:17:01.987Z,100916.00
2023-04-02T02:19:34.311Z,100913.00
2023-04-02T02:22:27.430Z,100936.00
2023-04-02T02:24:56.664Z,100928.00
2023-04-02T02:27:23.414Z,100938.00
2023-04-02T02:30:18.247Z,100936.00
2023-04-02T02:33:00.692Z,100942.00
2023-04-02T02:35:46.953Z,100942.00
2023-04-02T02:38:39.019Z,100955.00
2023-04-02T02:41:27.940Z,100966.00
2023-04-02T02:44:11.284Z,100965.00
2023-04-02T02:46:49.996Z,100960.00
2023-04-02T02:49:24.099Z,100963.00
2023-04-02T02:52:06.505Z,100980.00
2023-04-02T02:54:38.129Z,100988.00
2023-04-02T02:57:13.189Z,100987.00
2023-04-02T02:59:41.272Z,100979.00
2023-04-02T03:02:09.074Z,100997.00
2023-04-02T03:04:37.148Z,101012.00
2023-04-02T03:07:06.596Z,101003.00
2023-04-02T03:10:06.773Z,101017.00
2023-04-02T03:12:54.719Z,101015.00
2023-04-02T03:15:49.796Z,101017.00
2023-04-02T03:18:34.962Z,101034.00
2023-04-02T03:21:41.980Z,101031.00
2023-04-02T03:24:26.679Z,101031.00
2023-04-02T03:27:05.810Z,101038.00
2023-04-02T03:29:39.664Z,101033.00
2023-04-02T03:32:28.747Z,101043.00
2023-04-02T03:35:08.545Z,101053.00
2023-04-02T03:37:44.495Z,101057.00
2023-04-02T03:40:38.489Z,101070.00
2023-04-02T03:43:25.801Z,101066.00
2023-04-02T03:46:14.037Z,101073.00
2023-04-02T03:48:49.144Z,101070.00
2023-04-02T03:51:30.706Z,101073.00
2023-04-02T03:53:57.474Z,101079.00
2023-04-02T03:56:40.026Z,101079.00
2023-04-02T03:59:27.014Z,101084.00
2023-04-02T04:02:06.561Z,101089.00
2023-04-02T04:04:39.795Z,101093.00
2023-04-02T04:07:32.486Z,101099.00
2023-04-02T04:10:01.488Z,101095.00
2023-04-02T04:12:40.229Z,101108.00
2023-04-02T04:15:37.497Z,101110.00
2023-04-02T04:18:35.080Z,101120.00
2023-04-02T04:21:15.519Z,101131.00
2023-04-02T04:23:50.918Z,101129.00
2023-04-02T04:26:34.935Z,101138.00
2023-04-02T04:29:38.178Z,101134.00
2023-04-02T04:32:34.800Z,101141.00
2023-04-02T04:35:38.901Z,101144.00
2023-04-02T04:38:40.802Z,101151.00
2023-04-02T04:41:24.348Z,101162.00
2023-04-02T04:44:11.284Z,101158.00
2023-04-02T04:46:42.418Z,101167.00
2023-04-02T04:49:18.178Z,101178.00
2023-04-02T04:51:55.768Z,101188.00
2023-04-02T04:54:27.815Z,101188.00
2023-04-02T04:57:01.955Z,101183.00
2023-04-02T04:59:57.518Z,101183.00
2023-04-02T05:02:32.374Z,101191.00
2023-04-02T05:05:02.278Z,101194.00
2023-04-02T05:07:45.506Z,101203.00
2023-04-02T05:10:30.509Z,101212.00
2023-04-02T05:13:14.135Z,101215.00
2023-04-02T05:16:09.300Z,101217.00
2023-04-02T05:19:07.987Z,101224.00
2023-04-02T05:21:48.872Z,101241.00
2023-04-02T05:25:08.461Z,101236.00
2023-04-02T05:27:49.909Z,101234.00
2023-04-02T05:30:47.082Z,101249.00
2023-04-02T05:33:27.165Z,101244.00
2023-04-02T05:36:02.406Z,101260.00
2023-04-02T05:38:34.351Z,101249.00
2023-04-02T05:41:08.013Z,101250.00
2023-04-02T05:43:38.279Z,101265.00
2023-04-02T05:46:17.379Z,101262.00
2023-04-02T05:48:52.703Z,101277.00
2023-04-02T05:51:29.558Z,101278.00
2023-04-02T05:54:03.813Z,101275.00
2023-04-02T05:56:44.956Z,101284.00
2023-04-02T05:59:24.102Z,101293.00
2023-04-02T06:02:03.564Z,101293.00
2023-04-02T06:05:03.086Z,101287.00
2023-04-02T06:07:57.241Z,101289.00
2023-04-02T06:10:37.494Z,101308.00
2023-04-02T06:13:08.965Z,101309.00
2023-04-02T06:15:38.311Z,101312.00
2023-04-02T06:18:09.593Z,101314.00
2023-04-02T06:20:36.567Z,101321.00
2023-04-02T06:23:31.264Z,101326.00
2023-04-02T06:26:36.232Z,101335.00
2023-04-02T06:29:40.430Z,101333.00
2023-04-02T06:32:09.881Z,101343.00
2023-04-02T06:34:40.829Z,101348.00
2023-04-02T06:37:35.474Z,101349.00
2023-04-02T06:40:04.096Z,101349.00
2023-04-02T06:42:39.797Z,101358.00
2023-04-02T06:45:16.726Z,101363.00
2023-04-02T06:47:48.632Z,101368.00
2023-04-02T06:50:37.403Z,101376.00
2023-04-02T06:53:12.050Z,101386.00
2023-04-02T06:55:52.824Z,101380.00
2023-04-02T06:58:20.617Z,101389.00
2023-04-02T07:00:50.397Z,101385.00
2023-04-02T07:03:25.612Z,101396.00
2023-04-02T07:05:52.499Z,101395.00
2023-04-02T07:08:19.365Z,101393.00
2023-04-02T07:10:46.658Z,101402.00
2023-04-02T07:13:18.243Z,101403.00
2023-04-02T07:15:47.850Z,101412.00
2023-04-02T07:18:29.717Z,101403.00
2023-04-02T07:20:57.071Z,101399.00
2023-04-02T07:23:24.331Z,101420.00
2023-04-02T07:25:54.777Z,101410.00
2023-04-02T07:28:22.869Z,101415.00
2023-04-02T07:30:50.631Z,101422.00
2023-04-02T07:33:24.856Z,101427.00
2023-04-02T07:35:54.414Z,101431.00
2023-04-02T07:38:21.296Z,101426.00
2023-04-02T07:40:48.117Z,101430.00
2023-04-02T07:43:15.443Z,101419.00
2023-04-02T07:45:42.344Z,101452.00
2023-04-02T07:48:14.748Z,101438.00
2023-04-02T07:50:41.867Z,101440.00
2023-04-02T07:53:35.591Z,101453.00
2023-04-02T07:56:04.050Z,101463.00
2023-04-02T07:58:32.329Z,101451.00
2023-04-02T08:01:01.610Z,101474.00
2023-04-02T08:03:29.496Z,101484.00
2023-04-02T08:05:58.866Z,101480.00
2023-04-02T08:08:26.316Z,101482.00
2023-04-02T08:10:55.916Z,101489.00
2023-04-02T08:13:22.869Z,101495.00
2023-04-02T08:15:49.772Z,101489.00
2023-04-02T08:18:16.525Z,101498.00
2023-04-02T08:20:43.261Z,101505.00
2023-04-02T08:23:17.125Z,101495.00
2023-04-02T08:25:45.013Z,101501.00
2023-04-02T08:28:12.331Z,101506.00
2023-04-02T08:30:39.144Z,101521.00
2023-04-02T08:33:06.534Z,101513.00
2023-04-02T08:35:34.008Z,101506.00
2023-04-02T08:38:01.621Z,101526.00
2023-04-02T08:40:37.932Z,101525.00
2023-04-02T08:43:21.170Z,101531.00
2023-04-02T08:46:18.943Z,101539.00
2023-04-02T08:48:57.050Z,101536.00
2023-04-02T08:51:32.518Z,101524.00
2023-04-02T08:54:44.279Z,101553.00
2023-04-02T08:57:44.941Z,101549.00
2023-04-02T09:00:38.029Z,101564.00
2023-04-02T09:03:22.463Z,101564.00
2023-04-02T09:05:51.895Z,101579.00
2023-04-02T09:08:25.541Z,101577.00
2023-04-02T09:11:01.989Z,101587.00
2023-04-02T09:13:33.037Z,101581.00
2023-04-02T09:16:16.799Z,101581.00
2023-04-02T09:18:45.623Z,101577.00
2023-04-02T09:21:43.009Z,101574.00
2023-04-02T09:24:15.910Z,101587.00
2023-04-02T09:26:42.719Z,101568.00
2023-04-02T09:29:12.478Z,101581.00
2023-04-02T09:31:45.060Z,101582.00
2023-04-02T09:34:37.067Z,101591.00
2023-04-02T09:37:19.025Z,101584.00
2023-04-02T09:39:46.102Z,101592.00
2023-04-02T09:42:34.428Z,101603.00
2023-04-02T09:45:24.360Z,101607.00
2023-04-02T09:47:55.992Z,101617.00
2023-04-02T09:50:27.960Z,101601.00
2023-04-02T09:52:54.898Z,101624.00
2023-04-02T09:55:31.729Z,101625.00
2023-04-02T09:58:17.189Z,101624.00
2023-04-02T10:00:54.087Z,101628.00
2023-04-02T10:03:33.107Z,101636.00
2023-04-02T10:06:14.630Z,101641.00
2023-04-02T10:08:44.542Z,101647.00
2023-04-02T10:11:36.511Z,101645.00
2023-04-02T10:14:25.840Z,101666.00
2023-04-02T10:16:58.352Z,101661.00
2023-04-02T10:19:41.133Z,101664.00
2023-04-02T10:22:19.274Z,101671.00
2023-04-02T10:24:46.732Z,101673.00
2023-04-02T10:27:41.833Z,101675.00
2023-04-02T10:30:30.621Z,101659.00
2023-04-02T10:33:37.128Z,101672.00
2023-04-02T10:36:08.865Z,101683.00
2023-04-02T10:39:06.064Z,101683.00
2023-04-02T10:41:39.241Z,101688.00
2023-04-02T10:44:20.463Z,101686.00
2023-04-02T10:47:38.004Z,101683.00
2023-04-02T10:50:33.421Z,101700.00
2023-04-02T10:53:16.482Z,101694.00
2023-04-02T10:55:58.892Z,101708.00
2023-04-02T10:58:31.770Z,101696.00
2023-04-02T11:01:17.437Z,101711.00
2023-04-02T11:03:58.766Z,101703.00
2023-04-02T11:06:40.860Z,101716.00
2023-04-02T11:09:18.872Z,101711.00
2023-04-02T11:11:50.903Z,101717.00
2023-04-02T11:14:24.517Z,101721.00
2023-04-02T11:16:54.192Z,101738.00
2023-04-02T11:19:27.088Z,101740.00
2023-04-02T11:22:06.033Z,101736.00
2023-04-02T11:24:51.183Z,101747.00
2023-04-02T11:27:48.229Z,101745.00
2023-04-02T11:30:27.039Z,101754.00
2023-04-02T11:32:55.155Z,101757.00
2023-04-02T11:35:31.262Z,101760.00
2023-04-02T11:38:11.236Z,101762.00
2023-04-02T11:40:56.975Z,101764.00
2023-04-02T11:43:32.899Z,101750.00
2023-04-02T11:46:04.707Z,101762.00
2023-04-02T11:48:37.932Z,101755.00
2023-04-02T11:51:56.404Z,101767.00
2023-04-02T11:54:37.997Z,101749.00
2023-04-02T11:57:52.424Z,101763.00
2023-04-02T12:01:19.409Z,101763.00
2023-04-02T12:04:02.259Z,101769.00
2023-04-02T12:06:59.970Z,101764.00
2023-04-02T12:09:31.565Z,101775.00
2023-04-02T12:12:24.132Z,101768.00
2023-04-02T12:14:57.392Z,101772.00
2023-04-02T12:17:38.277Z,101789.00
2023-04-02T12:20:22.833Z,101792.00
2023-04-02T12:22:54.057Z,101800.00
2023-04-02T12:25:20.687Z,101797.00
2023-04-02T12:27:47.787Z,101810.00
2023-04-02T12:30:23.175Z,101813.00
2023-04-02T12:32:50.600Z,101805.00
2023-04-02T12:35:44.863Z,101813.00
2023-04-02T12:38:23.497Z,101813.00
2023-04-02T12:41:29.971Z,101799.00
2023-04-02T12:44:16.230Z,101813.00
2023-04-02T12:46:45.443Z,101812.00
2023-04-02T12:49:33.863Z,101812.00
2023-04-02T12:52:09.161Z,101812.00
2023-04-02T12:54:46.872Z,101826.00
2023-04-02T12:57:22.974Z,101809.00
2023-04-02T12:59:50.042Z,101830.00
2023-04-02T13:02:27.334Z,101822.00
2023-04-02T13:05:00.765Z,101806.00
2023-04-02T13:07:32.833Z,101807.00
2023-04-02T13:10:05.773Z,101824.00
2023-04-02T13:12:39.403Z,101818.00
2023-04-02T13:15:31.590Z,101814.00
2023-04-02T13:18:07.573Z,101822.00
2023-04-02T13:20:37.274Z,101817.00
2023-04-02T13:23:29.197Z,101826.00
2023-04-02T13:26:01.481Z,101823.00
2023-04-02T13:28:29.238Z,101828.00
2023-04-02T13:30:56.328Z,101825.00
2023-04-02T13:33:23.232Z,101831.00
2023-04-02T13:35:50.488Z,101836.00
2023-04-02T13:38:17.617Z,101833.00
2023-04-02T13:40:44.534Z,101837.00
2023-04-02T13:43:19.360Z,101846.00
2023-04-02T13:45:54.250Z,101844.00
2023-04-02T13:48:24.576Z,101858.00
2023-04-02T13:50:52.719Z,101848.00
2023-04-02T13:53:33.157Z,101843.00
2023-04-02T13:56:00.873Z,101840.00
2023-04-02T13:58:27.654Z,101852.00
2023-04-02T14:00:55.039Z,101853.00
2023-04-02T14:03:22.899Z,101864.00
2023-04-02T14:06:20.153Z,101849.00
2023-04-02T14:09:15.205Z,101859.00
2023-04-02T14:12:35.419Z,101860.00
2023-04-02T14:15:27.612Z,101871.00
2023-04-02T14:18:26.019Z,101883.00
2023-04-02T14:21:18.748Z,101897.00
2023-04-02T14:24:15.009Z,101889.00
2023-04-02T14:27:40.844Z,101895.00
2023-04-02T14:30:19.604Z,101871.00
2023-04-02T14:33:23.491Z,101888.00
2023-04-02T14:36:07.693Z,101877.00
2023-04-02T14:38:43.927Z,101872.00
2023-04-02T14:41:28.949Z,101899.00
2023-04-02T14:44:05.982Z,101901.00
2023-04-02T14:46:37.594Z,101891.00
2023-04-02T14:49:22.928Z,101904.00
2023-04-02T14:52:09.150Z,101903.00
2023-04-02T14:54:45.323Z,101908.00
2023-04-02T14:57:37.760Z,101913.00
2023-04-02T15:00:28.843Z,101914.00
2023-04-02T15:03:09.449Z,101909.00
2023-04-02T15:05:54.637Z,101906.00
2023-04-02T15:08:31.816Z,101912.00
2023-04-02T15:11:22.524Z,101916.00
2023-04-02T15:13:57.435Z,101923.00
2023-04-02T15:16:26.853Z,101927.00
2023-04-02T15:18:57.746Z,101922.00
2023-04-02T15:21:55.863Z,101925.00
2023-04-02T15:25:03.141Z,101927.00
2023-04-02T15:28:18.353Z,101946.00
2023-04-02T15:30:45.773Z,101943.00
2023-04-02T15:33:45.601Z,101947.00
2023-04-02T15:36:41.552Z,101950.00
2023-04-02T15:39:42.551Z,101950.00
2023-04-02T15:42:21.192Z,101960.00
2023-04-02T15:45:13.157Z,101960.00
2023-04-02T15:48:07.104Z,101954.00
2023-04-02T15:50:50.360Z,101969.00
2023-04-02T15:53:54.633Z,101973.00
2023-04-02T15:56:47.905Z,101991.00
2023-04-02T16:00:16.482Z,101991.00
2023-04-02T16:03:18.605Z,101972.00
2023-04-02T16:06:16.838Z,101991.00
2023-04-02T16:09:27.237Z,101996.00
2023-04-02T16:12:19.471Z,101992.00
2023-04-02T16:14:49.168Z,102001.00
2023-04-02T16:17:25.715Z,102013.00
2023-04-02T16:20:15.768Z,102012.00
2023-04-02T16:22:59.271Z,102014.00
2023-04-02T16:25:41.201Z,102016.00
2023-04-02T16:28:29.632Z,102037.00
2023-04-02T16:31:14.059Z,102014.00
2023-04-02T16:34:11.564Z,102044.00
2023-04-02T16:37:00.443Z,102031.00
2023-04-02T16:39:49.622Z,102039.00
2023-04-02T16:42:48.156Z,102052.00
2023-04-02T16:45:35.212Z,102052.00
2023-04-02T16:48:12.258Z,102050.00
2023-04-02T16:51:11.543Z,102059.00
2023-04-02T16:54:05.493Z,102063.00
2023-04-02T16:57:17.131Z,102070.00
2023-04-02T17:00:24.071Z,102073.00
2023-04-02T17:03:20.951Z,102080.00
2023-04-02T17:06:06.301Z,102075.00
2023-04-02T17:08:43.208Z,102088.00
2023-04-02T17:11:31.266Z,102081.00
2023-04-02T17:14:10.588Z,102081.00
2023-04-02T17:16:44.571Z,102092.00
2023-04-02T17:19:13.861Z,102097.00
2023-04-02T17:21:47.182Z,102093.00
2023-04-02T17:24:14.305Z,102088.00
2023-04-02T17:26:47.560Z,102102.00
2023-04-02T17:29:35.013Z,102107.00
2023-04-02T17:32:06.264Z,102114.00
2023-04-02T17:34:33.104Z,102117.00
2023-04-02T17:37:12.741Z,102136.00
2023-04-02T17:40:04.137Z,102128.00
2023-04-02T17:43:04.769Z,102140.00
2023-04-02T17:45:52.979Z,102142.00
2023-04-02T17:48:44.743Z,102147.00
2023-04-02T17:51:33.061Z,102145.00
2023-04-02T17:54:25.427Z,102154.00
2023-04-02T17:57:10.273Z,102159.00
2023-04-02T18:00:02.474Z,102157.00
2023-04-02T18:03:00.122Z,102170.00
2023-04-02T18:05:54.320Z,102171.00
2023-04-02T18:09:01.977Z,102172.00
2023-04-02T18:12:43.495Z,102182.00
2023-04-02T18:15:59.940Z,102184.00
2023-04-02T18:18:36.385Z,102170.00
2023-04-02T18:21:33.489Z,102188.00
2023-04-02T18:24:41.170Z,102188.00
2023-04-02T18:27:30.488Z,102189.00
2023-04-02T18:30:35.157Z,102209.00
2023-04-02T18:33:16.107Z,102198.00
2023-04-02T18:36:08.185Z,102214.00
2023-04-02T18:39:00.104Z,102217.00
2023-04-02T18:41:41.356Z,102223.00
2023-04-02T18:44:15.088Z,102221.00
2023-04-02T18:47:06.056Z,102237.00
2023-04-02T18:49:40.327Z,102231.00
2023-04-02T18:52:15.507Z,102244.00
2023-04-02T18:55:01.223Z,102246.00
2023-04-02T18:57:34.511Z,102244.00
2023-04-02T19:00:26.295Z,102258.00
2023-04-02T19:03:20.828Z,102251.00
2023-04-02T19:05:57.576Z,102258.00
2023-04-02T19:09:03.486Z,102264.00
2023-04-02T19:11:31.273Z,102265.00
2023-04-02T19:14:33.438Z,102282.00
2023-04-02T19:17:17.011Z,102271.00
2023-04-02T19:20:18.289Z,102283.00
2023-04-02T19:23:13.827Z,102292.00
2023-04-02T19:26:08.680Z,102288.00
2023-04-02T19:29:29.726Z,102308.00
2023-04-02T19:32:38.022Z,102305.00
2023-04-02T19:35:18.916Z,102289.00
2023-04-02T19:38:21.863Z,102299.00
2023-04-02T19:41:22.640Z,102305.00
2023-04-02T19:43:49.386Z,102313.00
2023-04-02T19:46:16.317Z,102317.00
2023-04-02T19:48:57.370Z,102318.00
2023-04-02T19:51:24.520Z,102310.00
2023-04-02T19:53:51.328Z,102315.00
2023-04-02T19:56:18.531Z,102320.00
2023-04-02T19:58:45.336Z,102318.00
2023-04-02T20:01:12.374Z,102332.00
2023-04-02T20:03:39.719Z,102332.00
2023-04-02T20:06:06.776Z,102326.00
2023-04-02T20:08:33.661Z,102327.00
2023-04-02T20:11:00.531Z,102336.00
2023-04-02T20:13:27.772Z,102348.00
2023-04-02T20:15:59.188Z,102337.00
2023-04-02T20:18:26.461Z,102352.00
2023-04-02T20:20:53.452Z,102352.00
2023-04-02T20:23:20.431Z,102349.00
2023-04-02T20:25:55.579Z,102354.00
2023-04-02T20:28:24.900Z,102349.00
2023-04-02T20:30:52.389Z,102357.00
2023-04-02T20:33:22.844Z,102362.00
2023-04-02T20:35:52.010Z,102368.00
2023-04-02T20:38:19.280Z,102365.00
2023-04-02T20:40:52.072Z,102373.00
2023-04-02T20:43:18.990Z,102377.00
2023-04-02T20:46:09.471Z,102382.00
2023-04-02T20:48:37.786Z,102386.00
2023-04-02T20:51:08.182Z,102393.00
2023-04-02T20:53:37.243Z,102400.00
2023-04-02T20:56:14.313Z,102396.00
2023-04-02T20:58:42.836Z,102401.00
2023-04-02T21:01:28.779Z,102402.00
2023-04-02T21:04:02.143Z,102411.00
2023-04-02T21:06:37.345Z,102416.00
2023-04-02T21:09:08.555Z,102411.00
2023-04-02T21:11:36.555Z,102419.00
2023-04-02T21:14:04.266Z,102410.00
2023-04-02T21:16:32.150Z,102406.00
2023-04-02T21:19:04.537Z,102417.00
2023-04-02T21:21:32.011Z,102420.00
2023-04-02T21:24:02.478Z,102410.00
2023-04-02T21:26:34.620Z,102421.00
2023-04-02T21:29:02.238Z,102416.00
2023-04-02T21:31:35.028Z,102425.00
2023-04-02T21:34:02.280Z,102430.00
2023-04-02T21:36:36.143Z,102431.00
2023-04-02T21:39:09.871Z,102425.00
2023-04-02T21:41:41.199Z,102434.00
2023-04-02T21:44:12.552Z,102440.00
2023-04-02T21:46:42.412Z,102437.00
2023-04-02T21:49:15.474Z,102452.00
2023-04-02T21:51:44.345Z,102445.00
2023-04-02T21:54:11.253Z,102444.00
2023-04-02T21:56:41.783Z,102458.00
2023-04-02T21:59:11.923Z,102450.00
2023-04-02T22:01:46.205Z,102457.00
2023-04-02T22:04:20.842Z,102458.00
2023-04-02T22:06:48.798Z,102454.00
2023-04-02T22:09:20.470Z,102460.00
2023-04-02T22:11:51.940Z,102465.00
2023-04-02T22:14:18.845Z,102464.00
2023-04-02T22:16:45.740Z,102467.00
2023-04-02T22:19:15.637Z,102474.00
2023-04-02T22:21:43.485Z,102464.00
2023-04-02T22:24:15.442Z,102468.00
2023-04-02T22:26:43.150Z,102466.00
2023-04-02T22:29:10.298Z,102486.00
2023-04-02T22:31:38.217Z,102482.00
2023-04-02T22:34:06.536Z,102476.00
2023-04-02T22:36:34.250Z,102491.00
2023-04-02T22:39:05.339Z,102479.00
2023-04-02T22:41:32.666Z,102488.00
2023-04-02T22:44:01.672Z,102477.00
2023-04-02T22:46:30.182Z,102487.00
2023-04-02T22:48:58.010Z,102497.00
2023-04-02T22:51:27.585Z,102493.00
2023-04-02T22:53:56.228Z,102489.00
2023-04-02T22:56:32.060Z,102492.00
2023-04-02T22:58:59.698Z,102490.00
2023-04-02T23:01:35.438Z,102503.00
2023-04-02T23:04:02.375Z,102508.00
2023-04-02T23:06:29.471Z,102500.00
2023-04-02T23:08:56.454Z,102518.00
2023-04-02T23:11:28.189Z,102509.00
2023-04-02T23:13:57.459Z,102536.00
2023-04-02T23:16:27.876Z,102518.00
2023-04-02T23:18:56.172Z,102519.00
2023-04-02T23:21:24.439Z,102521.00
2023-04-02T23:23:52.470Z,102520.00
2023-04-02T23:26:29.353Z,102522.00
2023-04-02T23:28:58.814Z,102520.00
2023-04-02T23:31:26.370Z,102522.00
2023-04-02T23:33:53.961Z,102526.00
2023-04-02T23:36:29.892Z,102520.00
2023-04-02T23:39:01.413Z,102532.00
2023-04-02T23:41:30.451Z,102521.00
2023-04-02T23:43:58.530Z,102520.00
2023-04-02T23:46:26.557Z,102530.00
2023-04-02T23:48:54.544Z,102534.00
2023-04-02T23:51:22.527Z,102532.00
2023-04-02T23:53:51.321Z,102534.00
2023-04-02T23:56:19.736Z,102538.00
2023-04-02T23:58:46.533Z,102540.00
